sensor_id;sensor_type;location;lat;lon;timestamp;P1;durP1;ratioP1;P2;durP2;ratioP2
15383;SDS011;7790;53.022;12.968;2022-10-16T00:00:23;2.97;;;1.40;;
15383;SDS011;7790;53.022;12.968;2022-10-16T00:04:24;1.10;;;1.10;;
15383;SDS011;7790;53.022;12.968;2022-10-16T00:08:25;1.30;;;1.20;;
15383;SDS011;7790;53.022;12.968;2022-10-16T00:12:26;1.23;;;1.13;;
15383;SDS011;7790;53.022;12.968;2022-10-16T00:16:27;1.40;;;1.30;;
15383;SDS011;7790;53.022;12.968;2022-10-16T00:20:28;1.20;;;1.10;;
15383;SDS011;7790;53.022;12.968;2022-10-16T00:24:31;1.10;;;1.10;;
15383;SDS011;7790;53.022;12.968;2022-10-16T00:28:33;0.93;;;0.93;;
15383;SDS011;7790;53.022;12.968;2022-10-16T00:32:34;1.20;;;1.10;;
15383;SDS011;7790;53.022;12.968;2022-10-16T00:36:35;1.83;;;1.13;;
15383;SDS011;7790;53.022;12.968;2022-10-16T00:40:36;1.10;;;1.10;;
15383;SDS011;7790;53.022;12.968;2022-10-16T00:48:59;1.13;;;1.10;;
15383;SDS011;7790;53.022;12.968;2022-10-16T00:53:02;1.47;;;1.30;;
15383;SDS011;7790;53.022;12.968;2022-10-16T00:57:04;2.20;;;1.10;;
15383;SDS011;7790;53.022;12.968;2022-10-16T01:01:06;1.00;;;1.00;;
15383;SDS011;7790;53.022;12.968;2022-10-16T01:05:07;1.57;;;1.30;;
15383;SDS011;7790;53.022;12.968;2022-10-16T01:13:33;1.77;;;1.20;;
15383;SDS011;7790;53.022;12.968;2022-10-16T01:21:50;0.80;;;0.80;;
15383;SDS011;7790;53.022;12.968;2022-10-16T01:30:18;1.30;;;1.20;;
15383;SDS011;7790;53.022;12.968;2022-10-16T01:34:28;0.93;;;0.90;;
15383;SDS011;7790;53.022;12.968;2022-10-16T01:38:34;1.30;;;1.17;;
15383;SDS011;7790;53.022;12.968;2022-10-16T01:42:48;3.10;;;1.00;;
15383;SDS011;7790;53.022;12.968;2022-10-16T01:46:54;2.20;;;1.00;;
15383;SDS011;7790;53.022;12.968;2022-10-16T01:51:03;1.37;;;1.00;;
15383;SDS011;7790;53.022;12.968;2022-10-16T01:55:08;1.00;;;1.00;;
15383;SDS011;7790;53.022;12.968;2022-10-16T01:59:13;1.27;;;1.13;;
15383;SDS011;7790;53.022;12.968;2022-10-16T02:03:18;2.37;;;1.00;;
15383;SDS011;7790;53.022;12.968;2022-10-16T02:07:20;0.77;;;0.77;;
15383;SDS011;7790;53.022;12.968;2022-10-16T02:11:21;0.90;;;0.90;;
15383;SDS011;7790;53.022;12.968;2022-10-16T02:15:22;1.20;;;1.10;;
15383;SDS011;7790;53.022;12.968;2022-10-16T02:19:22;0.80;;;0.80;;
15383;SDS011;7790;53.022;12.968;2022-10-16T02:28:07;1.50;;;0.87;;
15383;SDS011;7790;53.022;12.968;2022-10-16T02:32:22;1.83;;;1.10;;
15383;SDS011;7790;53.022;12.968;2022-10-16T02:36:26;1.30;;;1.00;;
15383;SDS011;7790;53.022;12.968;2022-10-16T02:40:28;1.00;;;1.00;;
15383;SDS011;7790;53.022;12.968;2022-10-16T02:44:29;0.90;;;0.90;;
15383;SDS011;7790;53.022;12.968;2022-10-16T02:48:30;0.93;;;0.83;;
15383;SDS011;7790;53.022;12.968;2022-10-16T02:52:31;0.80;;;0.80;;
15383;SDS011;7790;53.022;12.968;2022-10-16T02:56:31;0.93;;;0.93;;
15383;SDS011;7790;53.022;12.968;2022-10-16T03:00:32;1.37;;;0.97;;
15383;SDS011;7790;53.022;12.968;2022-10-16T03:04:33;0.80;;;0.80;;
15383;SDS011;7790;53.022;12.968;2022-10-16T03:08:34;0.83;;;0.70;;
15383;SDS011;7790;53.022;12.968;2022-10-16T03:12:35;0.87;;;0.87;;
15383;SDS011;7790;53.022;12.968;2022-10-16T03:16:36;1.67;;;0.80;;
15383;SDS011;7790;53.022;12.968;2022-10-16T03:20:36;0.97;;;0.87;;
15383;SDS011;7790;53.022;12.968;2022-10-16T03:24:37;0.73;;;0.73;;
15383;SDS011;7790;53.022;12.968;2022-10-16T03:28:38;1.00;;;0.90;;
15383;SDS011;7790;53.022;12.968;2022-10-16T03:32:39;0.83;;;0.83;;
15383;SDS011;7790;53.022;12.968;2022-10-16T03:36:40;0.90;;;0.90;;
15383;SDS011;7790;53.022;12.968;2022-10-16T03:40:41;0.90;;;0.90;;
15383;SDS011;7790;53.022;12.968;2022-10-16T03:44:41;0.90;;;0.90;;
15383;SDS011;7790;53.022;12.968;2022-10-16T03:48:42;0.90;;;0.90;;
15383;SDS011;7790;53.022;12.968;2022-10-16T03:52:44;0.50;;;0.50;;
15383;SDS011;7790;53.022;12.968;2022-10-16T03:56:45;0.90;;;0.90;;
15383;SDS011;7790;53.022;12.968;2022-10-16T04:00:46;0.97;;;0.87;;
15383;SDS011;7790;53.022;12.968;2022-10-16T04:04:48;0.70;;;0.70;;
15383;SDS011;7790;53.022;12.968;2022-10-16T04:08:49;1.03;;;0.83;;
15383;SDS011;7790;53.022;12.968;2022-10-16T04:12:50;1.17;;;0.97;;
15383;SDS011;7790;53.022;12.968;2022-10-16T04:16:51;0.70;;;0.70;;
15383;SDS011;7790;53.022;12.968;2022-10-16T04:20:52;0.80;;;0.80;;
15383;SDS011;7790;53.022;12.968;2022-10-16T04:24:53;0.90;;;0.70;;
15383;SDS011;7790;53.022;12.968;2022-10-16T04:28:54;0.93;;;0.60;;
15383;SDS011;7790;53.022;12.968;2022-10-16T04:32:55;0.70;;;0.50;;
15383;SDS011;7790;53.022;12.968;2022-10-16T04:36:56;0.70;;;0.70;;
15383;SDS011;7790;53.022;12.968;2022-10-16T04:40:56;1.43;;;0.60;;
15383;SDS011;7790;53.022;12.968;2022-10-16T04:44:57;0.63;;;0.63;;
15383;SDS011;7790;53.022;12.968;2022-10-16T04:48:58;0.77;;;0.77;;
15383;SDS011;7790;53.022;12.968;2022-10-16T04:52:59;1.57;;;0.87;;
15383;SDS011;7790;53.022;12.968;2022-10-16T04:57:00;0.70;;;0.70;;
15383;SDS011;7790;53.022;12.968;2022-10-16T05:01:01;0.60;;;0.60;;
15383;SDS011;7790;53.022;12.968;2022-10-16T05:05:01;0.50;;;0.50;;
15383;SDS011;7790;53.022;12.968;2022-10-16T05:09:02;0.87;;;0.87;;
15383;SDS011;7790;53.022;12.968;2022-10-16T05:13:03;0.77;;;0.77;;
15383;SDS011;7790;53.022;12.968;2022-10-16T05:17:04;1.00;;;0.80;;
15383;SDS011;7790;53.022;12.968;2022-10-16T05:21:05;0.57;;;0.57;;
15383;SDS011;7790;53.022;12.968;2022-10-16T05:25:06;0.80;;;0.80;;
15383;SDS011;7790;53.022;12.968;2022-10-16T05:29:07;0.50;;;0.50;;
15383;SDS011;7790;53.022;12.968;2022-10-16T05:33:08;0.80;;;0.80;;
15383;SDS011;7790;53.022;12.968;2022-10-16T05:37:09;0.50;;;0.50;;
15383;SDS011;7790;53.022;12.968;2022-10-16T05:41:11;0.63;;;0.63;;
15383;SDS011;7790;53.022;12.968;2022-10-16T05:45:12;0.60;;;0.60;;
15383;SDS011;7790;53.022;12.968;2022-10-16T05:49:13;0.70;;;0.70;;
15383;SDS011;7790;53.022;12.968;2022-10-16T05:53:14;0.47;;;0.47;;
15383;SDS011;7790;53.022;12.968;2022-10-16T05:57:25;0.60;;;0.60;;
15383;SDS011;7790;53.022;12.968;2022-10-16T06:01:26;0.50;;;0.50;;
15383;SDS011;7790;53.022;12.968;2022-10-16T06:05:27;0.70;;;0.70;;
15383;SDS011;7790;53.022;12.968;2022-10-16T06:09:27;0.40;;;0.40;;
15383;SDS011;7790;53.022;12.968;2022-10-16T06:13:28;0.70;;;0.63;;
15383;SDS011;7790;53.022;12.968;2022-10-16T06:17:29;0.73;;;0.73;;
15383;SDS011;7790;53.022;12.968;2022-10-16T06:21:30;0.60;;;0.60;;
15383;SDS011;7790;53.022;12.968;2022-10-16T06:25:31;0.53;;;0.53;;
15383;SDS011;7790;53.022;12.968;2022-10-16T06:29:32;0.43;;;0.43;;
15383;SDS011;7790;53.022;12.968;2022-10-16T06:33:32;0.80;;;0.80;;
15383;SDS011;7790;53.022;12.968;2022-10-16T06:37:33;1.40;;;0.63;;
15383;SDS011;7790;53.022;12.968;2022-10-16T06:41:34;0.90;;;0.70;;
15383;SDS011;7790;53.022;12.968;2022-10-16T06:45:55;0.80;;;0.80;;
15383;SDS011;7790;53.022;12.968;2022-10-16T06:49:57;2.30;;;0.60;;
15383;SDS011;7790;53.022;12.968;2022-10-16T06:53:58;1.50;;;0.67;;
15383;SDS011;7790;53.022;12.968;2022-10-16T06:57:58;1.60;;;0.80;;
15383;SDS011;7790;53.022;12.968;2022-10-16T07:01:59;1.77;;;0.87;;
15383;SDS011;7790;53.022;12.968;2022-10-16T07:06:05;0.77;;;0.70;;
15383;SDS011;7790;53.022;12.968;2022-10-16T07:10:07;0.70;;;0.70;;
15383;SDS011;7790;53.022;12.968;2022-10-16T07:14:12;3.50;;;0.80;;
15383;SDS011;7790;53.022;12.968;2022-10-16T07:18:16;1.67;;;0.63;;
15383;SDS011;7790;53.022;12.968;2022-10-16T07:22:17;0.93;;;0.70;;
15383;SDS011;7790;53.022;12.968;2022-10-16T07:26:18;3.33;;;0.80;;
15383;SDS011;7790;53.022;12.968;2022-10-16T07:30:19;6.77;;;0.93;;
15383;SDS011;7790;53.022;12.968;2022-10-16T07:34:20;2.93;;;0.90;;
15383;SDS011;7790;53.022;12.968;2022-10-16T07:38:22;4.23;;;0.97;;
15383;SDS011;7790;53.022;12.968;2022-10-16T07:42:23;4.50;;;0.83;;
15383;SDS011;7790;53.022;12.968;2022-10-16T07:46:23;2.60;;;1.13;;
15383;SDS011;7790;53.022;12.968;2022-10-16T07:50:24;5.60;;;1.17;;
15383;SDS011;7790;53.022;12.968;2022-10-16T07:54:25;2.87;;;0.77;;
15383;SDS011;7790;53.022;12.968;2022-10-16T07:58:26;3.27;;;0.90;;
15383;SDS011;7790;53.022;12.968;2022-10-16T08:02:28;1.03;;;0.87;;
15383;SDS011;7790;53.022;12.968;2022-10-16T08:06:29;1.33;;;0.60;;
15383;SDS011;7790;53.022;12.968;2022-10-16T08:10:36;3.40;;;0.80;;
15383;SDS011;7790;53.022;12.968;2022-10-16T08:14:37;3.90;;;0.70;;
15383;SDS011;7790;53.022;12.968;2022-10-16T08:18:39;1.30;;;0.60;;
15383;SDS011;7790;53.022;12.968;2022-10-16T08:22:40;2.37;;;0.70;;
15383;SDS011;7790;53.022;12.968;2022-10-16T08:26:41;3.03;;;0.80;;
15383;SDS011;7790;53.022;12.968;2022-10-16T08:30:42;3.50;;;0.80;;
15383;SDS011;7790;53.022;12.968;2022-10-16T08:34:43;5.60;;;1.03;;
15383;SDS011;7790;53.022;12.968;2022-10-16T08:38:46;2.63;;;1.20;;
15383;SDS011;7790;53.022;12.968;2022-10-16T08:47:25;4.50;;;1.27;;
15383;SDS011;7790;53.022;12.968;2022-10-16T08:51:35;4.63;;;1.20;;
15383;SDS011;7790;53.022;12.968;2022-10-16T08:55:38;3.23;;;1.03;;
15383;SDS011;7790;53.022;12.968;2022-10-16T08:59:42;6.70;;;1.60;;
15383;SDS011;7790;53.022;12.968;2022-10-16T09:16:22;3.10;;;0.83;;
15383;SDS011;7790;53.022;12.968;2022-10-16T09:20:38;4.63;;;1.40;;
15383;SDS011;7790;53.022;12.968;2022-10-16T09:24:47;5.60;;;1.43;;
15383;SDS011;7790;53.022;12.968;2022-10-16T09:28:49;4.00;;;1.10;;
15383;SDS011;7790;53.022;12.968;2022-10-16T09:32:52;2.80;;;1.10;;
15383;SDS011;7790;53.022;12.968;2022-10-16T09:36:55;3.60;;;1.17;;
15383;SDS011;7790;53.022;12.968;2022-10-16T09:41:02;2.43;;;0.90;;
15383;SDS011;7790;53.022;12.968;2022-10-16T09:45:21;2.00;;;0.97;;
15383;SDS011;7790;53.022;12.968;2022-10-16T09:49:25;1.00;;;0.80;;
15383;SDS011;7790;53.022;12.968;2022-10-16T09:54:28;3.57;;;1.10;;
15383;SDS011;7790;53.022;12.968;2022-10-16T09:57:58;4.33;;;1.60;;
15383;SDS011;7790;53.022;12.968;2022-10-16T10:02:02;3.07;;;1.77;;
15383;SDS011;7790;53.022;12.968;2022-10-16T10:10:29;4.43;;;1.83;;
15383;SDS011;7790;53.022;12.968;2022-10-16T10:14:34;4.17;;;1.80;;
15383;SDS011;7790;53.022;12.968;2022-10-16T10:18:38;3.70;;;1.83;;
15383;SDS011;7790;53.022;12.968;2022-10-16T10:22:42;4.77;;;1.93;;
15383;SDS011;7790;53.022;12.968;2022-10-16T10:39:52;2.93;;;1.30;;
15383;SDS011;7790;53.022;12.968;2022-10-16T10:48:57;4.47;;;1.23;;
15383;SDS011;7790;53.022;12.968;2022-10-16T10:53:48;4.07;;;1.37;;
15383;SDS011;7790;53.022;12.968;2022-10-16T10:57:29;2.83;;;1.30;;
15383;SDS011;7790;53.022;12.968;2022-10-16T11:06:07;2.53;;;1.23;;
15383;SDS011;7790;53.022;12.968;2022-10-16T11:10:44;4.03;;;1.30;;
15383;SDS011;7790;53.022;12.968;2022-10-16T11:19:19;2.30;;;0.93;;
15383;SDS011;7790;53.022;12.968;2022-10-16T11:23:30;6.47;;;1.20;;
15383;SDS011;7790;53.022;12.968;2022-10-16T11:27:50;6.27;;;1.30;;
15383;SDS011;7790;53.022;12.968;2022-10-16T11:32:00;2.50;;;1.13;;
15383;SDS011;7790;53.022;12.968;2022-10-16T11:36:17;1.30;;;1.00;;
15383;SDS011;7790;53.022;12.968;2022-10-16T11:40:24;3.00;;;0.80;;
15383;SDS011;7790;53.022;12.968;2022-10-16T11:44:44;0.93;;;0.67;;
15383;SDS011;7790;53.022;12.968;2022-10-16T11:53:35;1.10;;;0.73;;
15383;SDS011;7790;53.022;12.968;2022-10-16T11:57:40;0.60;;;0.60;;
15383;SDS011;7790;53.022;12.968;2022-10-16T12:06:36;0.77;;;0.73;;
15383;SDS011;7790;53.022;12.968;2022-10-16T12:10:43;1.20;;;1.10;;
15383;SDS011;7790;53.022;12.968;2022-10-16T12:14:45;3.13;;;0.90;;
15383;SDS011;7790;53.022;12.968;2022-10-16T12:18:46;2.20;;;0.90;;
15383;SDS011;7790;53.022;12.968;2022-10-16T12:22:53;1.23;;;0.80;;
15383;SDS011;7790;53.022;12.968;2022-10-16T12:26:55;3.43;;;0.83;;
15383;SDS011;7790;53.022;12.968;2022-10-16T12:31:00;3.13;;;0.80;;
15383;SDS011;7790;53.022;12.968;2022-10-16T12:35:04;2.07;;;0.70;;
15383;SDS011;7790;53.022;12.968;2022-10-16T12:39:21;1.00;;;0.83;;
15383;SDS011;7790;53.022;12.968;2022-10-16T12:43:25;1.70;;;0.70;;
15383;SDS011;7790;53.022;12.968;2022-10-16T12:47:37;0.87;;;0.70;;
15383;SDS011;7790;53.022;12.968;2022-10-16T12:51:47;2.93;;;0.90;;
15383;SDS011;7790;53.022;12.968;2022-10-16T13:17:35;1.20;;;0.73;;
15383;SDS011;7790;53.022;12.968;2022-10-16T13:26:24;7.67;;;1.00;;
15383;SDS011;7790;53.022;12.968;2022-10-16T13:30:43;2.73;;;0.90;;
15383;SDS011;7790;53.022;12.968;2022-10-16T13:34:51;2.33;;;1.10;;
15383;SDS011;7790;53.022;12.968;2022-10-16T13:39:00;3.37;;;1.10;;
15383;SDS011;7790;53.022;12.968;2022-10-16T13:43:23;3.27;;;0.73;;
15383;SDS011;7790;53.022;12.968;2022-10-16T13:47:28;2.17;;;0.77;;
15383;SDS011;7790;53.022;12.968;2022-10-16T13:51:30;2.10;;;0.80;;
15383;SDS011;7790;53.022;12.968;2022-10-16T13:55:32;0.93;;;0.80;;
15383;SDS011;7790;53.022;12.968;2022-10-16T13:59:33;0.73;;;0.73;;
15383;SDS011;7790;53.022;12.968;2022-10-16T14:03:35;1.37;;;0.50;;
15383;SDS011;7790;53.022;12.968;2022-10-16T14:07:36;1.90;;;0.70;;
15383;SDS011;7790;53.022;12.968;2022-10-16T14:11:43;2.47;;;0.90;;
15383;SDS011;7790;53.022;12.968;2022-10-16T14:15:49;3.53;;;0.80;;
15383;SDS011;7790;53.022;12.968;2022-10-16T14:19:53;3.60;;;0.87;;
15383;SDS011;7790;53.022;12.968;2022-10-16T14:23:56;5.53;;;0.83;;
15383;SDS011;7790;53.022;12.968;2022-10-16T14:27:58;2.73;;;0.70;;
15383;SDS011;7790;53.022;12.968;2022-10-16T14:32:23;2.47;;;1.00;;
15383;SDS011;7790;53.022;12.968;2022-10-16T14:36:25;2.00;;;0.83;;
15383;SDS011;7790;53.022;12.968;2022-10-16T14:40:32;1.83;;;0.70;;
15383;SDS011;7790;53.022;12.968;2022-10-16T14:44:34;6.43;;;1.00;;
15383;SDS011;7790;53.022;12.968;2022-10-16T14:48:39;7.03;;;1.20;;
15383;SDS011;7790;53.022;12.968;2022-10-16T14:52:42;3.30;;;1.00;;
15383;SDS011;7790;53.022;12.968;2022-10-16T15:00:55;3.33;;;1.30;;
15383;SDS011;7790;53.022;12.968;2022-10-16T15:04:56;6.27;;;1.30;;
15383;SDS011;7790;53.022;12.968;2022-10-16T15:08:57;5.20;;;1.33;;
15383;SDS011;7790;53.022;12.968;2022-10-16T15:12:58;8.47;;;1.57;;
15383;SDS011;7790;53.022;12.968;2022-10-16T15:16:59;2.77;;;1.27;;
15383;SDS011;7790;53.022;12.968;2022-10-16T15:21:00;7.53;;;2.30;;
15383;SDS011;7790;53.022;12.968;2022-10-16T15:25:01;5.10;;;2.50;;
15383;SDS011;7790;53.022;12.968;2022-10-16T15:29:02;4.40;;;2.40;;
15383;SDS011;7790;53.022;12.968;2022-10-16T15:33:03;7.37;;;2.73;;
15383;SDS011;7790;53.022;12.968;2022-10-16T15:37:04;6.97;;;2.63;;
15383;SDS011;7790;53.022;12.968;2022-10-16T15:41:05;4.53;;;2.50;;
15383;SDS011;7790;53.022;12.968;2022-10-16T15:45:06;2.83;;;2.20;;
15383;SDS011;7790;53.022;12.968;2022-10-16T15:49:08;7.20;;;2.40;;
15383;SDS011;7790;53.022;12.968;2022-10-16T15:53:11;4.87;;;2.43;;
15383;SDS011;7790;53.022;12.968;2022-10-16T15:57:11;9.40;;;2.20;;
15383;SDS011;7790;53.022;12.968;2022-10-16T16:01:12;5.90;;;2.23;;
15383;SDS011;7790;53.022;12.968;2022-10-16T16:05:13;3.20;;;1.87;;
15383;SDS011;7790;53.022;12.968;2022-10-16T16:09:14;6.87;;;1.80;;
15383;SDS011;7790;53.022;12.968;2022-10-16T16:13:15;6.63;;;1.90;;
15383;SDS011;7790;53.022;12.968;2022-10-16T16:17:16;3.03;;;1.87;;
15383;SDS011;7790;53.022;12.968;2022-10-16T16:21:17;4.17;;;1.70;;
15383;SDS011;7790;53.022;12.968;2022-10-16T16:25:18;1.77;;;1.60;;
15383;SDS011;7790;53.022;12.968;2022-10-16T16:29:19;3.37;;;1.70;;
15383;SDS011;7790;53.022;12.968;2022-10-16T16:33:19;3.17;;;1.20;;
15383;SDS011;7790;53.022;12.968;2022-10-16T16:37:20;1.00;;;0.90;;
15383;SDS011;7790;53.022;12.968;2022-10-16T16:41:22;1.37;;;1.23;;
15383;SDS011;7790;53.022;12.968;2022-10-16T16:45:25;2.10;;;1.23;;
15383;SDS011;7790;53.022;12.968;2022-10-16T16:49:26;4.77;;;1.50;;
15383;SDS011;7790;53.022;12.968;2022-10-16T16:53:27;3.83;;;1.13;;
15383;SDS011;7790;53.022;12.968;2022-10-16T16:57:28;4.20;;;1.40;;
15383;SDS011;7790;53.022;12.968;2022-10-16T17:01:29;1.10;;;1.00;;
15383;SDS011;7790;53.022;12.968;2022-10-16T17:05:31;2.93;;;1.17;;
15383;SDS011;7790;53.022;12.968;2022-10-16T17:09:32;1.37;;;1.27;;
15383;SDS011;7790;53.022;12.968;2022-10-16T17:13:33;4.40;;;0.90;;
15383;SDS011;7790;53.022;12.968;2022-10-16T17:17:37;2.03;;;1.03;;
15383;SDS011;7790;53.022;12.968;2022-10-16T17:21:38;5.03;;;1.20;;
15383;SDS011;7790;53.022;12.968;2022-10-16T17:25:40;2.83;;;1.03;;
15383;SDS011;7790;53.022;12.968;2022-10-16T17:29:42;1.70;;;0.97;;
15383;SDS011;7790;53.022;12.968;2022-10-16T17:33:44;1.67;;;1.10;;
15383;SDS011;7790;53.022;12.968;2022-10-16T17:37:45;1.53;;;1.07;;
15383;SDS011;7790;53.022;12.968;2022-10-16T17:41:46;4.17;;;1.07;;
15383;SDS011;7790;53.022;12.968;2022-10-16T17:45:48;2.40;;;1.10;;
15383;SDS011;7790;53.022;12.968;2022-10-16T17:49:50;3.87;;;1.40;;
15383;SDS011;7790;53.022;12.968;2022-10-16T17:53:53;1.37;;;1.10;;
15383;SDS011;7790;53.022;12.968;2022-10-16T17:57:56;2.50;;;1.20;;
15383;SDS011;7790;53.022;12.968;2022-10-16T18:01:57;2.43;;;1.20;;
15383;SDS011;7790;53.022;12.968;2022-10-16T18:05:57;1.37;;;1.20;;
15383;SDS011;7790;53.022;12.968;2022-10-16T18:10:01;3.30;;;1.70;;
15383;SDS011;7790;53.022;12.968;2022-10-16T18:14:07;3.97;;;1.63;;
15383;SDS011;7790;53.022;12.968;2022-10-16T18:18:12;1.83;;;1.73;;
15383;SDS011;7790;53.022;12.968;2022-10-16T18:22:13;3.97;;;1.90;;
15383;SDS011;7790;53.022;12.968;2022-10-16T18:26:14;3.03;;;1.80;;
15383;SDS011;7790;53.022;12.968;2022-10-16T18:30:16;2.03;;;1.83;;
15383;SDS011;7790;53.022;12.968;2022-10-16T18:34:17;3.20;;;2.00;;
15383;SDS011;7790;53.022;12.968;2022-10-16T18:38:18;3.80;;;1.80;;
15383;SDS011;7790;53.022;12.968;2022-10-16T18:42:19;5.67;;;2.00;;
15383;SDS011;7790;53.022;12.968;2022-10-16T18:46:21;4.80;;;2.23;;
15383;SDS011;7790;53.022;12.968;2022-10-16T18:50:24;2.87;;;1.97;;
15383;SDS011;7790;53.022;12.968;2022-10-16T18:54:25;2.87;;;2.07;;
15383;SDS011;7790;53.022;12.968;2022-10-16T18:58:25;2.50;;;2.20;;
15383;SDS011;7790;53.022;12.968;2022-10-16T19:02:26;5.07;;;2.40;;
15383;SDS011;7790;53.022;12.968;2022-10-16T19:06:27;3.67;;;2.30;;
15383;SDS011;7790;53.022;12.968;2022-10-16T19:10:29;3.27;;;2.70;;
15383;SDS011;7790;53.022;12.968;2022-10-16T19:14:30;4.93;;;2.97;;
15383;SDS011;7790;53.022;12.968;2022-10-16T19:18:31;4.13;;;2.80;;
15383;SDS011;7790;53.022;12.968;2022-10-16T19:22:37;5.33;;;3.50;;
15383;SDS011;7790;53.022;12.968;2022-10-16T19:26:53;3.43;;;3.13;;
15383;SDS011;7790;53.022;12.968;2022-10-16T19:30:54;3.93;;;3.40;;
15383;SDS011;7790;53.022;12.968;2022-10-16T19:34:55;5.67;;;3.73;;
15383;SDS011;7790;53.022;12.968;2022-10-16T19:39:00;4.73;;;3.30;;
15383;SDS011;7790;53.022;12.968;2022-10-16T19:43:03;3.40;;;3.10;;
15383;SDS011;7790;53.022;12.968;2022-10-16T19:47:04;3.90;;;3.23;;
15383;SDS011;7790;53.022;12.968;2022-10-16T19:51:05;3.63;;;3.00;;
15383;SDS011;7790;53.022;12.968;2022-10-16T19:55:09;4.97;;;2.83;;
15383;SDS011;7790;53.022;12.968;2022-10-16T19:59:11;5.93;;;3.37;;
15383;SDS011;7790;53.022;12.968;2022-10-16T20:03:12;3.60;;;2.53;;
15383;SDS011;7790;53.022;12.968;2022-10-16T20:07:13;3.70;;;2.87;;
15383;SDS011;7790;53.022;12.968;2022-10-16T20:11:16;3.87;;;2.63;;
15383;SDS011;7790;53.022;12.968;2022-10-16T20:15:18;3.10;;;2.60;;
15383;SDS011;7790;53.022;12.968;2022-10-16T20:19:20;3.40;;;2.63;;
15383;SDS011;7790;53.022;12.968;2022-10-16T20:23:21;3.40;;;2.70;;
15383;SDS011;7790;53.022;12.968;2022-10-16T20:27:25;2.90;;;2.60;;
15383;SDS011;7790;53.022;12.968;2022-10-16T20:31:28;3.10;;;2.60;;
15383;SDS011;7790;53.022;12.968;2022-10-16T20:35:34;3.20;;;2.60;;
15383;SDS011;7790;53.022;12.968;2022-10-16T20:39:36;3.73;;;2.40;;
15383;SDS011;7790;53.022;12.968;2022-10-16T20:43:44;2.77;;;2.20;;
15383;SDS011;7790;53.022;12.968;2022-10-16T20:47:46;5.77;;;2.83;;
15383;SDS011;7790;53.022;12.968;2022-10-16T20:51:47;2.73;;;2.43;;
15383;SDS011;7790;53.022;12.968;2022-10-16T20:55:49;4.57;;;2.67;;
15383;SDS011;7790;53.022;12.968;2022-10-16T20:59:49;2.70;;;2.30;;
15383;SDS011;7790;53.022;12.968;2022-10-16T21:03:55;2.30;;;2.10;;
15383;SDS011;7790;53.022;12.968;2022-10-16T21:07:58;3.13;;;2.40;;
15383;SDS011;7790;53.022;12.968;2022-10-16T21:11:59;2.70;;;2.50;;
15383;SDS011;7790;53.022;12.968;2022-10-16T21:16:01;2.33;;;2.13;;
15383;SDS011;7790;53.022;12.968;2022-10-16T21:20:02;2.90;;;2.60;;
15383;SDS011;7790;53.022;12.968;2022-10-16T21:24:03;2.23;;;2.00;;
15383;SDS011;7790;53.022;12.968;2022-10-16T21:28:05;2.27;;;1.93;;
15383;SDS011;7790;53.022;12.968;2022-10-16T21:32:06;2.50;;;2.30;;
15383;SDS011;7790;53.022;12.968;2022-10-16T21:36:20;3.17;;;2.00;;
15383;SDS011;7790;53.022;12.968;2022-10-16T21:40:23;2.40;;;2.20;;
15383;SDS011;7790;53.022;12.968;2022-10-16T21:44:23;2.30;;;1.90;;
15383;SDS011;7790;53.022;12.968;2022-10-16T21:48:24;1.90;;;1.80;;
15383;SDS011;7790;53.022;12.968;2022-10-16T21:52:25;2.40;;;1.90;;
15383;SDS011;7790;53.022;12.968;2022-10-16T21:56:26;3.10;;;1.80;;
15383;SDS011;7790;53.022;12.968;2022-10-16T22:00:27;2.13;;;2.00;;
15383;SDS011;7790;53.022;12.968;2022-10-16T22:04:28;2.80;;;1.97;;
15383;SDS011;7790;53.022;12.968;2022-10-16T22:08:29;2.00;;;1.90;;
15383;SDS011;7790;53.022;12.968;2022-10-16T22:12:32;2.27;;;2.07;;
15383;SDS011;7790;53.022;12.968;2022-10-16T22:16:33;2.30;;;2.10;;
15383;SDS011;7790;53.022;12.968;2022-10-16T22:20:34;2.90;;;1.80;;
15383;SDS011;7790;53.022;12.968;2022-10-16T22:24:35;2.20;;;2.00;;
15383;SDS011;7790;53.022;12.968;2022-10-16T22:28:37;2.33;;;1.90;;
15383;SDS011;7790;53.022;12.968;2022-10-16T22:32:38;2.77;;;2.00;;
15383;SDS011;7790;53.022;12.968;2022-10-16T22:36:39;2.20;;;2.00;;
15383;SDS011;7790;53.022;12.968;2022-10-16T22:40:40;2.10;;;1.90;;
15383;SDS011;7790;53.022;12.968;2022-10-16T22:44:41;1.83;;;1.73;;
15383;SDS011;7790;53.022;12.968;2022-10-16T22:48:42;1.70;;;1.60;;
15383;SDS011;7790;53.022;12.968;2022-10-16T22:52:43;3.03;;;1.90;;
15383;SDS011;7790;53.022;12.968;2022-10-16T22:56:44;1.90;;;1.80;;
15383;SDS011;7790;53.022;12.968;2022-10-16T23:00:44;1.70;;;1.60;;
15383;SDS011;7790;53.022;12.968;2022-10-16T23:04:45;1.67;;;1.57;;
15383;SDS011;7790;53.022;12.968;2022-10-16T23:08:50;1.50;;;1.37;;
15383;SDS011;7790;53.022;12.968;2022-10-16T23:12:52;2.13;;;1.87;;
15383;SDS011;7790;53.022;12.968;2022-10-16T23:16:53;1.70;;;1.60;;
15383;SDS011;7790;53.022;12.968;2022-10-16T23:20:53;1.57;;;1.47;;
15383;SDS011;7790;53.022;12.968;2022-10-16T23:24:54;2.03;;;1.80;;
15383;SDS011;7790;53.022;12.968;2022-10-16T23:28:55;2.53;;;1.60;;
15383;SDS011;7790;53.022;12.968;2022-10-16T23:32:57;1.67;;;1.57;;
15383;SDS011;7790;53.022;12.968;2022-10-16T23:36:58;1.50;;;1.40;;
15383;SDS011;7790;53.022;12.968;2022-10-16T23:40:59;1.63;;;1.53;;
15383;SDS011;7790;53.022;12.968;2022-10-16T23:45:00;1.73;;;1.60;;
15383;SDS011;7790;53.022;12.968;2022-10-16T23:49:01;4.07;;;1.80;;
15383;SDS011;7790;53.022;12.968;2022-10-16T23:53:02;1.57;;;1.47;;
15383;SDS011;7790;53.022;12.968;2022-10-16T23:57:02;1.90;;;1.50;;
